Time;durP1;ratioP1;P1;durP2;ratioP2;P2;SDS_P1;SDS_P2;PMS_P1;PMS_P2;Temp;Humidity;BMP_temperature;BMP_pressure;BME280_temperature;BME280_humidity;BME280_pressure;Samples;Min_cycle;Max_cycle;Signal;HPM_P1;HPM_P2
2022/08/12 00:42:56;;;;;;;11.73;5.03;;;;;;;12.00;81.42;98487.50;5064862;28;20225;-66
2022/08/12 00:45:21;;;;;;;10.20;5.65;;;;;;;11.95;82.44;98495.53;5064917;28;20087;-66
2022/08/12 00:47:50;;;;;;;20.52;5.38;;;;;;;12.01;82.53;98500.63;5064897;28;20356;-66
2022/08/12 00:50:18;;;;;;;18.77;5.38;;;;;;;12.00;83.74;98498.91;5064896;28;20013;-66
2022/08/12 00:52:49;;;;;;;16.17;6.43;;;;;;;11.86;84.00;98498.41;5065341;28;20103;-66
2022/08/12 00:55:16;;;;;;;12.65;5.00;;;;;;;12.00;83.17;98504.19;5065350;28;20060;-66
2022/08/12 00:57:46;;;;;;;13.70;4.93;;;;;;;11.86;83.10;98493.13;5065049;28;20051;-66
2022/08/12 01:00:20;;;;;;;11.80;5.18;;;;;;;11.98;83.24;98494.56;5063441;28;20025;-66
2022/08/12 01:02:50;;;;;;;9.77;5.18;;;;;;;12.11;83.00;98491.56;5066204;28;20063;-66
2022/08/12 01:13:38;;;;;;;9.40;5.03;;;;;;;11.69;84.12;98498.00;5065797;28;20023;-66
2022/08/12 01:16:06;;;;;;;11.57;5.22;;;;;;;11.77;83.52;98496.00;5065847;28;20212;-66
2022/08/12 01:18:34;;;;;;;15.00;6.00;;;;;;;11.72;84.09;98487.38;5065961;28;20020;-66
2022/08/12 01:21:17;;;;;;;11.20;5.70;;;;;;;11.68;83.52;98484.84;5065404;28;20021;-66
2022/08/12 01:24:10;;;;;;;17.25;5.97;;;;;;;11.70;83.91;98489.16;5065815;28;20031;-66
2022/08/12 01:26:38;;;;;;;12.82;6.10;;;;;;;11.81;84.00;98484.50;5065534;28;20036;-66
2022/08/12 01:29:05;;;;;;;12.48;5.53;;;;;;;11.68;83.77;98485.69;5062039;28;20328;-66
2022/08/12 01:31:35;;;;;;;25.10;6.35;;;;;;;11.66;83.98;98481.38;5065661;28;20028;-66
2022/08/12 01:34:05;;;;;;;18.80;6.70;;;;;;;11.44;84.53;98488.94;5064848;28;20351;-66
2022/08/12 01:36:44;;;;;;;20.00;6.78;;;;;;;11.43;86.15;98492.50;5065480;28;20092;-66
2022/08/12 01:39:14;;;;;;;19.42;5.82;;;;;;;11.57;85.67;98482.44;5065899;28;20024;-66
2022/08/12 01:41:52;;;;;;;10.63;5.68;;;;;;;11.41;85.51;98494.28;5065629;28;20025;-66
2022/08/12 01:44:19;;;;;;;12.18;5.88;;;;;;;11.54;85.62;98487.81;5063907;28;20342;-66
2022/08/12 01:47:18;;;;;;;11.55;5.43;;;;;;;11.59;85.50;98485.94;5065553;28;20047;-66
2022/08/12 01:50:19;;;;;;;18.20;6.53;;;;;;;11.33;85.27;98484.84;5065590;28;20033;-66
2022/08/12 01:52:54;;;;;;;13.10;5.72;;;;;;;11.42;85.64;98488.09;5064505;28;20041;-66
2022/08/12 01:55:46;;;;;;;13.70;6.35;;;;;;;11.47;85.54;98490.63;5065619;28;20048;-66
2022/08/12 01:58:23;;;;;;;10.05;5.80;;;;;;;11.35;85.06;98476.00;5063265;28;20102;-66
2022/08/12 02:00:57;;;;;;;18.38;6.53;;;;;;;11.42;85.72;98482.00;5065657;28;20080;-66
2022/08/12 02:13:13;;;;;;;12.90;5.72;;;;;;;11.29;85.65;98473.50;5045453;28;20029;-66
2022/08/12 02:16:02;;;;;;;12.00;6.07;;;;;;;11.31;85.90;98484.88;5045105;28;20026;-66
2022/08/12 02:19:11;;;;;;;20.15;6.03;;;;;;;11.28;86.20;98477.06;5048255;28;20435;-66
2022/08/12 02:21:45;;;;;;;12.70;6.25;;;;;;;11.15;86.43;98472.09;5048246;28;20049;-66
2022/08/12 02:24:19;;;;;;;10.32;6.78;;;;;;;11.27;86.65;98477.97;5048691;28;20021;-66
2022/08/12 02:26:47;;;;;;;17.05;6.55;;;;;;;11.25;86.40;98474.50;5048908;28;20029;-66
2022/08/12 02:29:13;;;;;;;14.48;6.35;;;;;;;11.24;86.45;98480.66;5048392;28;20055;-66
2022/08/12 02:31:41;;;;;;;12.77;6.55;;;;;;;11.21;86.46;98472.84;5048753;28;20052;-66
2022/08/12 02:34:08;;;;;;;16.70;7.25;;;;;;;11.14;86.61;98475.66;5048826;28;20054;-66
2022/08/12 02:36:37;;;;;;;18.42;6.47;;;;;;;11.04;86.10;98469.72;5048717;28;20049;-66
2022/08/12 02:39:04;;;;;;;12.02;6.82;;;;;;;11.10;86.80;98468.75;5048769;28;20029;-66
2022/08/12 02:41:33;;;;;;;14.27;6.63;;;;;;;11.12;86.88;98475.69;5049613;28;20025;-66
2022/08/12 02:44:03;;;;;;;18.95;7.15;;;;;;;11.04;86.88;98468.88;5048316;28;20092;-66
2022/08/12 02:46:33;;;;;;;11.90;6.25;;;;;;;11.05;87.18;98471.47;5048389;28;20028;-66
2022/08/12 02:49:13;;;;;;;13.48;6.72;;;;;;;10.97;86.97;98460.25;5048529;28;20032;-66
2022/08/12 02:51:41;;;;;;;20.98;6.70;;;;;;;10.97;87.58;98465.50;5048262;28;20021;-66
2022/08/12 02:54:07;;;;;;;13.80;6.50;;;;;;;11.06;87.61;98467.06;5048497;28;20025;-66
2022/08/12 02:56:36;;;;;;;11.15;7.47;;;;;;;11.08;87.47;98465.25;5048029;28;20308;-66
2022/08/12 02:59:02;;;;;;;11.73;6.10;;;;;;;10.87;86.95;98462.25;5048418;28;20385;-66
2022/08/12 03:01:32;;;;;;;20.95;7.25;;;;;;;10.88;87.76;98468.34;5048119;28;20025;-66
2022/08/12 03:04:00;;;;;;;13.18;7.03;;;;;;;10.87;87.95;98472.78;5048275;28;20093;-66
2022/08/12 03:06:31;;;;;;;17.38;7.55;;;;;;;10.79;87.20;98469.44;5048013;28;20034;-66
2022/08/12 03:08:57;;;;;;;14.18;7.50;;;;;;;10.79;87.92;98479.13;5048177;28;20088;-66
2022/08/12 03:11:35;;;;;;;19.20;6.50;;;;;;;10.87;88.40;98471.91;5062363;28;20032;-66
2022/08/12 03:14:02;;;;;;;13.15;7.28;;;;;;;10.88;88.42;98482.41;5067773;28;20332;-66
2022/08/12 03:16:31;;;;;;;16.25;6.82;;;;;;;10.87;88.05;98477.16;5067601;28;20021;-66
2022/08/12 03:18:57;;;;;;;13.55;7.07;;;;;;;10.89;88.01;98480.63;5067559;28;20035;-66
2022/08/12 03:21:24;;;;;;;17.63;7.40;;;;;;;10.86;88.48;98470.19;5067444;28;20118;-66
2022/08/12 03:23:53;;;;;;;15.00;8.15;;;;;;;10.91;88.36;98482.34;5067451;28;20047;-66
2022/08/12 03:26:24;;;;;;;18.30;6.50;;;;;;;10.70;87.56;98474.06;5067459;28;20074;-66
2022/08/12 03:28:52;;;;;;;20.35;7.35;;;;;;;10.64;88.86;98475.03;5066341;28;20357;-66
2022/08/12 03:31:29;;;;;;;20.55;6.80;;;;;;;10.64;88.39;98474.19;5067397;28;20040;-66
2022/08/12 03:34:22;;;;;;;18.10;6.78;;;;;;;10.72;88.53;98482.78;5067185;28;20366;-66
2022/08/12 03:36:48;;;;;;;;;;;;;;;10.73;88.89;98480.09;5067709;28;20029;-66
2022/08/12 03:42:06;;;;;;;13.00;6.97;;;;;;;10.57;89.04;98483.13;5065428;28;20088;-66
2022/08/12 04:01:08;;;;;;;15.00;6.90;;;;;;;10.34;89.47;98495.88;5046165;28;20033;-66
2022/08/12 04:03:52;;;;;;;14.77;6.45;;;;;;;10.41;89.68;98487.00;5046787;28;20025;-66
2022/08/12 04:06:23;;;;;;;14.35;7.03;;;;;;;10.36;89.64;98489.72;5046406;28;20084;-66
2022/08/12 04:08:56;;;;;;;12.30;6.32;;;;;;;10.27;89.83;98495.16;5046646;28;20021;-66
2022/08/12 04:14:16;;;;;;;9.52;6.03;;;;;;;10.25;90.37;98501.34;5046005;28;20448;-66
2022/08/12 04:16:42;;;;;;;9.68;6.15;;;;;;;10.36;89.96;98509.88;5046957;28;20098;-66
2022/08/12 04:19:08;;;;;;;11.95;6.50;;;;;;;10.45;89.41;98504.44;5045683;28;20049;-66
2022/08/12 04:21:35;;;;;;;14.13;6.53;;;;;;;10.36;89.41;98507.25;5046166;28;20025;-66
2022/08/12 04:24:01;;;;;;;12.80;5.72;;;;;;;10.45;89.39;98507.06;5046009;28;20028;-66
2022/08/12 04:26:28;;;;;;;10.60;6.28;;;;;;;10.34;89.38;98509.03;5045651;28;20044;-66
2022/08/12 04:28:57;;;;;;;10.23;6.30;;;;;;;10.24;89.93;98515.38;5045301;28;20341;-66
2022/08/12 04:31:33;;;;;;;9.57;6.55;;;;;;;10.45;90.37;98512.31;5045775;28;20045;-66
2022/08/12 04:33:59;;;;;;;12.65;6.38;;;;;;;10.54;90.18;98507.72;5045321;28;20067;-66
2022/08/12 04:36:25;;;;;;;9.07;6.18;;;;;;;10.47;89.85;98507.88;5064499;28;20029;-67
2022/08/12 04:38:51;;;;;;;13.20;6.47;;;;;;;10.50;90.22;98513.06;5057421;28;20092;-67
2022/08/12 04:41:19;;;;;;;11.38;6.22;;;;;;;10.41;89.71;98518.56;5044101;28;20025;-67
2022/08/12 04:43:46;;;;;;;9.32;5.75;;;;;;;10.43;90.10;98522.00;5044334;28;20316;-67
2022/08/12 04:46:11;;;;;;;14.25;6.05;;;;;;;10.49;90.09;98516.63;5044237;28;20125;-67
2022/08/12 04:48:37;;;;;;;14.27;5.70;;;;;;;10.57;89.82;98520.81;5044234;28;20025;-67
2022/08/12 04:51:03;;;;;;;11.85;5.80;;;;;;;10.50;89.42;98527.13;5044233;28;20317;-67
2022/08/12 04:53:30;;;;;;;9.77;5.70;;;;;;;10.41;89.53;98522.03;5044449;28;20084;-67
2022/08/12 04:55:55;;;;;;;11.05;5.65;;;;;;;10.46;89.84;98522.81;5044368;28;20305;-67
2022/08/12 04:58:21;;;;;;;8.02;5.05;;;;;;;10.60;88.96;98531.28;5044135;28;20029;-67
2022/08/12 05:00:47;;;;;;;9.98;5.50;;;;;;;10.55;88.96;98530.53;5044276;28;20128;-67
2022/08/12 05:03:13;;;;;;;10.90;5.20;;;;;;;10.68;88.61;98525.84;5044080;28;20032;-67
2022/08/12 05:05:39;;;;;;;9.88;5.90;;;;;;;10.66;88.59;98528.53;5043926;28;20021;-67
2022/08/12 05:08:14;;;;;;;8.48;5.43;;;;;;;10.89;88.02;98538.56;5043967;28;20067;-67
2022/08/12 05:10:40;;;;;;;9.27;4.90;;;;;;;11.06;87.39;98541.69;5044238;28;20021;-67
2022/08/12 05:13:11;;;;;;;11.57;4.93;;;;;;;11.18;87.59;98541.41;5043936;28;20202;-67
2022/08/12 05:15:40;;;;;;;7.43;4.72;;;;;;;11.44;88.15;98541.66;5043905;28;20031;-67
2022/08/12 05:18:06;;;;;;;10.68;6.03;;;;;;;12.78;84.95;98552.09;5043872;28;20084;-67
2022/08/12 05:20:33;;;;;;;16.85;4.30;;;;;;;14.14;78.39;98566.25;5043741;28;20213;-67
2022/08/12 05:23:09;;;;;;;9.00;4.53;;;;;;;15.25;73.12;98567.38;5044111;28;20152;-68
2022/08/12 05:25:35;;;;;;;9.50;3.95;;;;;;;15.99;69.06;98572.34;5043816;28;20021;-68
2022/08/12 05:28:01;;;;;;;6.28;3.65;;;;;;;16.77;66.84;98571.59;5043830;28;20208;-68
2022/08/12 05:30:29;;;;;;;7.13;3.78;;;;;;;17.48;64.13;98581.56;5043832;28;20375;-68
2022/08/12 05:32:56;;;;;;;7.53;3.45;;;;;;;17.91;62.14;98583.88;5044007;28;20336;-68
2022/08/12 05:35:21;;;;;;;4.78;3.38;;;;;;;18.22;60.97;98584.09;5043707;28;20390;-68
2022/08/12 05:37:47;;;;;;;7.00;3.20;;;;;;;18.69;59.67;98585.19;5043659;28;20029;-68
2022/08/12 05:40:13;;;;;;;4.30;3.10;;;;;;;19.04;59.02;98586.81;5043651;28;20025;-68
2022/08/12 05:42:38;;;;;;;6.00;2.90;;;;;;;19.78;57.36;98588.94;5043684;28;20221;-68
2022/08/12 05:45:05;;;;;;;11.20;3.60;;;;;;;20.00;56.53;98592.06;5043675;28;20067;-68
2022/08/12 05:47:31;;;;;;;6.70;3.42;;;;;;;20.51;54.83;98594.41;5043674;28;20252;-68
2022/08/12 05:49:58;;;;;;;7.75;2.92;;;;;;;20.95;54.25;98595.25;5043625;28;20084;-68
2022/08/12 05:52:23;;;;;;;6.57;3.53;;;;;;;21.18;52.14;98581.34;5045452;28;20029;-68
2022/08/12 05:54:49;;;;;;;8.90;3.25;;;;;;;20.78;54.05;98579.34;5047463;28;20021;-68
2022/08/12 05:57:14;;;;;;;6.05;3.17;;;;;;;21.74;51.76;98601.84;5047456;28;20056;-68
2022/08/12 05:59:40;;;;;;;6.32;3.42;;;;;;;21.35;52.39;98576.72;5047302;28;20036;-68
2022/08/12 06:02:08;;;;;;;8.98;3.00;;;;;;;22.56;51.60;98602.63;5047346;28;20328;-68
2022/08/12 06:04:34;;;;;;;7.88;3.30;;;;;;;23.13;50.02;98595.91;5047307;28;20045;-68
2022/08/12 06:07:11;;;;;;;5.38;3.13;;;;;;;22.91;50.01;98587.63;5047286;28;20029;-68
2022/08/12 06:09:36;;;;;;;6.82;4.00;;;;;;;23.47;49.69;98592.56;5047449;28;20089;-68
2022/08/12 06:12:02;;;;;;;5.47;3.25;;;;;;;23.59;48.87;98580.94;5047172;28;20325;-68
2022/08/12 06:14:27;;;;;;;5.47;2.80;;;;;;;23.67;49.56;98588.44;5047154;28;20198;-68
2022/08/12 06:16:54;;;;;;;7.10;3.35;;;;;;;24.16;48.01;98587.44;5047087;28;20067;-69
2022/08/12 06:19:19;;;;;;;9.18;3.13;;;;;;;24.63;47.03;98587.38;5047014;28;20060;-69
2022/08/12 06:21:47;;;;;;;5.45;3.00;;;;;;;25.34;46.70;98603.34;5047232;28;20025;-69
2022/08/12 06:24:13;;;;;;;9.57;3.63;;;;;;;26.13;45.55;98608.59;5047183;28;20300;-69
2022/08/12 06:26:39;;;;;;;4.00;2.95;;;;;;;26.77;43.31;98610.34;5046810;28;20026;-69
2022/08/12 06:29:04;;;;;;;10.48;3.30;;;;;;;27.51;43.20;98610.09;5046657;28;20277;-69
2022/08/12 06:31:30;;;;;;;9.23;2.78;;;;;;;27.85;40.16;98602.56;5046817;28;20025;-69
2022/08/12 06:33:55;;;;;;;4.78;3.03;;;;;;;27.85;38.45;98598.03;5046793;28;20352;-69
2022/08/12 06:36:22;;;;;;;7.13;3.05;;;;;;;28.87;39.23;98609.28;5046774;28;20088;-69
2022/08/12 06:38:48;;;;;;;7.63;3.55;;;;;;;28.46;37.79;98599.59;5046883;28;20021;-69
2022/08/12 06:43:58;;;;;;;7.88;3.10;;;;;;;29.80;34.34;98604.81;5046570;28;20147;-69
2022/08/12 06:46:26;;;;;;;10.32;2.80;;;;;;;29.86;33.86;98596.06;5046565;28;20337;-69
2022/08/12 06:48:57;;;;;;;12.15;3.20;;;;;;;30.02;33.78;98588.97;5046574;28;20021;-69
2022/08/12 06:51:29;;;;;;;5.30;3.33;;;;;;;30.09;33.45;98581.06;5046495;28;20025;-69
2022/08/12 06:53:54;;;;;;;6.40;2.92;;;;;;;30.82;34.21;98589.00;5046396;28;20030;-69
2022/08/12 06:56:21;;;;;;;9.85;3.35;;;;;;;31.13;32.51;98590.28;5046428;28;20025;-69
2022/08/12 06:58:46;;;;;;;9.05;3.45;;;;;;;30.28;32.85;98572.84;5046282;28;20051;-69
2022/08/12 07:01:11;;;;;;;8.70;3.17;;;;;;;29.98;33.23;98570.41;5046177;28;20025;-69
2022/08/12 07:03:37;;;;;;;9.55;2.97;;;;;;;31.07;32.65;98593.63;5046070;28;20022;-69
2022/08/12 07:06:10;;;;;;;4.45;3.13;;;;;;;30.91;32.36;98577.19;5046193;28;20128;-69
2022/08/12 07:08:36;;;;;;;6.93;3.28;;;;;;;31.43;31.90;98578.94;5046072;28;20025;-69
2022/08/12 07:11:04;;;;;;;6.65;3.00;;;;;;;31.79;31.41;98585.91;5046094;28;20022;-69
2022/08/12 07:13:41;;;;;;;9.00;3.80;;;;;;;31.82;31.11;98580.19;5046063;28;20320;-69
2022/08/12 07:16:08;;;;;;;6.13;3.20;;;;;;;31.96;31.28;98579.59;5045985;28;20025;-69
2022/08/12 07:18:34;;;;;;;11.70;3.35;;;;;;;31.34;31.32;98571.75;5045981;28;20043;-69
2022/08/12 07:21:01;;;;;;;4.95;3.10;;;;;;;31.30;31.78;98566.78;5045874;28;20328;-69
2022/08/12 07:23:27;;;;;;;13.35;3.45;;;;;;;31.09;31.09;98575.28;5046088;28;20049;-69
2022/08/12 07:25:53;;;;;;;8.57;3.28;;;;;;;31.72;30.98;98578.56;5045862;28;20032;-69
2022/08/12 07:28:22;;;;;;;7.13;3.67;;;;;;;31.94;31.00;98578.88;5045609;28;20064;-69
2022/08/12 07:30:50;;;;;;;5.95;3.20;;;;;;;31.64;30.88;98571.25;5045642;28;20335;-69
2022/08/12 07:33:18;;;;;;;5.65;2.70;;;;;;;31.97;30.79;98577.69;5045891;28;20022;-69
2022/08/12 07:35:46;;;;;;;8.05;3.60;;;;;;;31.84;31.33;98578.16;5045572;28;20317;-69
2022/08/12 07:38:42;;;;;;;11.48;3.35;;;;;;;32.27;30.82;98579.84;5045521;28;20026;-69
2022/08/12 07:41:18;;;;;;;6.70;3.65;;;;;;;31.01;31.27;98572.50;5045205;28;20075;-69
2022/08/12 07:43:55;;;;;;;12.20;4.28;;;;;;;30.94;31.35;98566.00;5045438;28;20080;-69
2022/08/12 07:46:24;;;;;;;6.68;3.15;;;;;;;31.07;31.08;98566.44;5045393;28;20025;-69
2022/08/12 07:48:53;;;;;;;6.03;3.50;;;;;;;31.62;30.36;98578.72;5045455;28;20023;-69
2022/08/12 07:51:21;;;;;;;8.30;3.65;;;;;;;31.87;30.86;98576.97;5045345;28;20031;-69
2022/08/12 07:53:48;;;;;;;8.88;3.40;;;;;;;32.04;30.14;98578.72;5045297;28;20031;-69
2022/08/12 07:56:14;;;;;;;7.60;3.17;;;;;;;32.56;29.36;98591.16;5045121;28;20025;-69
2022/08/12 07:58:40;;;;;;;7.95;2.95;;;;;;;32.81;29.76;98590.16;5045162;28;20021;-69
2022/08/12 08:01:11;;;;;;;7.30;3.60;;;;;;;32.73;29.68;98598.34;5045019;28;20375;-69
2022/08/12 08:04:54;;;;;;;9.07;3.42;;;;;;;32.33;29.08;98582.78;5045096;28;20317;-69
2022/08/12 08:06:23;;;;;;;8.05;3.30;;;;;;;31.87;30.59;98594.16;5044890;28;20029;-69
2022/08/12 08:08:49;;;;;;;7.60;2.65;;;;;;;32.41;29.65;98592.84;5045014;28;20348;-69
2022/08/12 08:14:00;;;;;;;10.55;3.17;;;;;;;32.19;29.74;98601.59;5044652;28;20363;-69
2022/08/12 08:16:25;;;;;;;13.32;3.35;;;;;;;32.58;28.99;98600.00;5044535;28;20029;-69
2022/08/12 08:18:52;;;;;;;7.40;2.90;;;;;;;32.54;29.49;98598.66;5044803;28;20032;-69
2022/08/12 08:21:20;;;;;;;10.13;3.28;;;;;;;32.35;28.98;98580.75;5044904;28;20028;-69
2022/08/12 08:26:31;;;;;;;10.73;3.47;;;;;;;32.62;29.44;98618.59;5044628;28;20096;-69
2022/08/12 08:28:58;;;;;;;14.18;3.65;;;;;;;31.75;29.55;98587.28;5044309;28;20045;-69
2022/08/12 08:31:23;;;;;;;6.97;2.88;;;;;;;32.01;29.61;98601.72;5044657;28;20337;-69
2022/08/12 08:33:49;;;;;;;7.65;2.97;;;;;;;32.17;29.29;98611.81;5044543;28;20026;-69
2022/08/12 08:36:14;;;;;;;11.77;3.40;;;;;;;31.29;30.66;98593.16;5044440;28;20021;-69
2022/08/12 08:38:44;;;;;;;5.03;3.03;;;;;;;32.05;29.59;98611.25;5044400;28;20195;-69
2022/08/12 08:43:55;;;;;;;9.93;3.45;;;;;;;31.60;30.24;98596.22;5044386;28;20052;-69
2022/08/12 08:46:21;;;;;;;7.90;3.53;;;;;;;32.10;29.22;98608.91;5044574;28;20021;-69
2022/08/12 08:48:47;;;;;;;9.10;3.50;;;;;;;31.61;29.86;98593.34;5044358;28;20045;-69
2022/08/12 08:51:12;;;;;;;12.10;3.47;;;;;;;32.02;29.58;98614.31;5044196;28;20021;-69
2022/08/12 08:53:40;;;;;;;12.02;3.38;;;;;;;32.34;28.48;98606.28;5044203;28;20316;-69
2022/08/12 08:56:09;;;;;;;6.80;3.45;;;;;;;32.11;29.20;98605.13;5044408;28;20031;-69
2022/08/12 08:58:36;;;;;;;6.18;2.85;;;;;;;31.34;30.05;98601.66;5044386;28;20297;-69
2022/08/12 09:01:03;;;;;;;4.85;2.85;;;;;;;31.13;30.45;98593.00;5043983;28;20025;-69
2022/08/12 09:03:29;;;;;;;8.35;3.55;;;;;;;32.01;29.81;98604.44;5044004;28;20328;-69
2022/08/12 09:05:55;;;;;;;7.22;3.25;;;;;;;32.37;28.95;98611.41;5044078;28;20029;-69
2022/08/12 09:08:21;;;;;;;8.00;3.20;;;;;;;32.40;29.32;98608.31;5044081;28;20343;-69
2022/08/12 09:10:47;;;;;;;8.23;3.15;;;;;;;31.95;29.24;98602.34;5044251;28;20051;-69
2022/08/12 09:13:33;;;;;;;8.43;3.28;;;;;;;32.14;28.78;98590.38;5043969;28;20021;-69
2022/08/12 09:15:59;;;;;;;10.55;3.17;;;;;;;31.83;29.33;98583.78;5043972;28;20064;-69
2022/08/12 09:18:26;;;;;;;9.23;3.30;;;;;;;31.92;29.51;98589.06;5044111;28;20208;-69
2022/08/12 09:20:51;;;;;;;4.85;2.80;;;;;;;32.14;29.19;98587.63;5044083;28;20033;-69
2022/08/12 09:23:18;;;;;;;6.97;2.85;;;;;;;31.85;29.38;98590.75;5044182;28;20089;-69
2022/08/12 09:25:44;;;;;;;10.65;3.50;;;;;;;31.85;29.01;98579.84;5043873;28;20025;-69
2022/08/12 09:28:11;;;;;;;7.25;3.13;;;;;;;32.51;28.65;98583.50;5046906;28;20048;-69
2022/08/12 09:30:38;;;;;;;12.77;3.05;;;;;;;32.81;28.25;98592.91;5047984;28;20325;-69
2022/08/12 09:33:05;;;;;;;6.63;3.55;;;;;;;32.37;28.44;98569.69;5047868;28;20393;-69
2022/08/12 09:35:36;;;;;;;11.35;3.42;;;;;;;31.64;28.46;98570.38;5048114;28;20051;-69
2022/08/12 09:38:01;;;;;;;6.65;3.40;;;;;;;31.16;29.67;98566.31;5048090;28;20021;-69
2022/08/12 09:40:28;;;;;;;11.70;3.20;;;;;;;31.24;28.90;98557.38;5047665;28;20144;-69
2022/08/12 09:45:40;;;;;;;5.90;2.90;;;;;;;32.22;28.48;98561.28;5047659;28;20083;-69
2022/08/12 09:48:07;;;;;;;8.65;2.95;;;;;;;32.85;27.75;98565.16;5047563;28;20068;-69
2022/08/12 09:50:34;;;;;;;7.07;3.05;;;;;;;32.72;27.13;98559.34;5047835;28;20221;-69
2022/08/12 09:53:12;;;;;;;5.63;2.88;;;;;;;32.51;28.18;98555.38;5047534;28;20021;-69
2022/08/12 09:55:41;;;;;;;8.82;2.88;;;;;;;32.71;27.59;98565.78;5047455;28;20088;-69
2022/08/12 09:58:06;;;;;;;14.80;2.80;;;;;;;31.63;27.85;98550.47;5047439;28;20030;-69
2022/08/12 10:00:33;;;;;;;16.17;3.53;;;;;;;31.71;28.66;98566.84;5047325;28;20032;-69
2022/08/12 10:02:59;;;;;;;7.57;2.60;;;;;;;31.23;28.96;98543.94;5047295;28;20021;-69
2022/08/12 10:05:24;;;;;;;10.63;2.95;;;;;;;32.57;28.05;98549.25;5047271;28;20049;-69
2022/08/12 10:07:50;;;;;;;6.20;3.08;;;;;;;31.43;28.58;98527.25;5047328;28;20028;-69
2022/08/12 10:10:15;;;;;;;7.50;3.97;;;;;;;31.15;29.10;98515.69;5047164;28;20037;-69
2022/08/12 10:15:27;;;;;;;10.00;2.85;;;;;;;32.29;28.04;98543.22;5047177;28;20028;-69
2022/08/12 10:17:53;;;;;;;15.05;3.22;;;;;;;31.78;28.28;98518.03;5047077;28;20253;-69
2022/08/12 10:20:18;;;;;;;5.90;2.75;;;;;;;32.47;27.79;98535.81;5047003;28;20048;-69
2022/08/12 10:22:56;;;;;;;7.13;3.03;;;;;;;31.90;27.51;98523.06;5046976;28;20021;-69
2022/08/12 10:30:51;;;;;;;5.22;2.92;;;;;;;32.39;27.83;98513.97;5046822;28;20063;-69
2022/08/12 10:33:16;;;;;;;6.80;2.60;;;;;;;32.20;27.77;98497.91;5051336;28;20312;-69
2022/08/12 10:35:42;;;;;;;6.47;2.85;;;;;;;32.89;28.08;98511.97;5053169;28;20071;-69
2022/08/12 10:38:10;;;;;;;8.73;3.38;;;;;;;32.23;27.83;98503.03;5046191;28;20052;-69
2022/08/12 10:43:39;;;;;;;11.30;3.85;;;;;;;32.03;28.05;98496.19;5046844;28;20411;-69
2022/08/12 10:46:06;;;;;;;9.25;3.50;;;;;;;31.32;28.66;98494.91;5065720;28;20040;-69
2022/08/12 10:48:32;;;;;;;6.53;2.95;;;;;;;31.77;28.12;98506.31;5065927;28;20029;-69
2022/08/12 10:50:57;;;;;;;9.63;2.92;;;;;;;32.07;28.47;98494.84;5048931;28;20071;-69
2022/08/12 10:53:23;;;;;;;8.57;2.95;;;;;;;31.85;28.63;98491.91;5045276;28;20029;-69
2022/08/12 10:55:53;;;;;;;7.07;3.33;;;;;;;31.44;28.50;98488.13;5053857;28;20025;-69
2022/08/12 10:58:18;;;;;;;8.25;2.90;;;;;;;31.17;28.91;98485.59;5065119;28;20021;-69
2022/08/12 11:00:44;;;;;;;13.30;2.97;;;;;;;31.06;28.21;98484.00;5064720;28;20047;-69
2022/08/12 11:03:09;;;;;;;9.93;3.38;;;;;;;30.42;29.22;98482.66;5047998;28;20091;-69
2022/08/12 11:05:35;;;;;;;7.18;3.13;;;;;;;30.62;29.48;98478.72;5064755;28;20044;-69
2022/08/12 11:08:01;;;;;;;10.40;3.00;;;;;;;30.53;29.37;98471.56;5055337;28;20139;-69
2022/08/12 11:10:27;;;;;;;8.13;3.03;;;;;;;30.09;29.80;98469.78;5045219;28;20017;-69
2022/08/12 11:12:55;;;;;;;7.57;3.15;;;;;;;30.12;30.42;98466.75;5045215;28;20032;-69
2022/08/12 11:15:22;;;;;;;5.63;2.95;;;;;;;30.04;30.50;98461.22;5061694;28;20017;-69
2022/08/12 11:17:48;;;;;;;8.93;3.72;;;;;;;30.41;30.47;98470.09;5045063;28;20025;-69
2022/08/12 11:20:14;;;;;;;5.38;2.80;;;;;;;31.29;30.69;98484.34;5052525;28;20348;-69
2022/08/12 11:22:39;;;;;;;5.85;3.33;;;;;;;30.97;30.19;98478.69;5061482;28;20032;-69
2022/08/12 11:25:09;;;;;;;7.78;3.10;;;;;;;31.07;30.22;98465.84;5044994;28;20204;-69
2022/08/12 11:27:34;;;;;;;5.20;3.10;;;;;;;30.97;29.82;98455.06;5061393;28;20082;-69
2022/08/12 11:29:59;;;;;;;7.03;3.05;;;;;;;31.75;29.39;98470.22;5061238;28;20029;-69
2022/08/12 11:32:25;;;;;;;6.55;3.00;;;;;;;31.61;29.44;98462.72;5052437;28;20301;-69
2022/08/12 11:34:50;;;;;;;8.98;3.10;;;;;;;31.94;28.24;98486.31;5044804;28;20340;-69
2022/08/12 11:37:15;;;;;;;8.02;2.88;;;;;;;31.08;28.93;98445.78;5053784;28;20390;-69
2022/08/12 11:39:41;;;;;;;6.68;3.45;;;;;;;30.43;30.08;98462.66;5045184;28;20064;-69
2022/08/12 11:42:06;;;;;;;7.40;2.97;;;;;;;30.17;30.74;98448.97;5044608;28;20332;-69
2022/08/12 11:44:31;;;;;;;7.35;3.13;;;;;;;29.70;30.96;98419.50;5045673;28;20336;-69
2022/08/12 11:46:57;;;;;;;10.50;3.05;;;;;;;29.58;30.85;98429.66;5044353;28;20072;-69
2022/08/12 11:49:26;;;;;;;7.57;2.75;;;;;;;29.77;31.25;98426.03;5043846;28;20085;-69
2022/08/12 11:51:52;;;;;;;6.85;2.72;;;;;;;29.89;31.00;98430.22;5044439;28;20053;-69
2022/08/12 11:54:17;;;;;;;10.27;2.90;;;;;;;29.78;30.53;98423.16;5044346;28;20075;-69
2022/08/12 11:56:43;;;;;;;9.18;3.05;;;;;;;29.49;31.28;98425.19;5044595;28;20028;-69
2022/08/12 11:59:08;;;;;;;7.03;2.63;;;;;;;29.54;30.98;98424.72;5058941;28;20087;-69
2022/08/12 12:01:33;;;;;;;4.20;2.65;;;;;;;29.41;30.74;98416.94;5062396;28;20044;-69
2022/08/12 12:03:59;;;;;;;14.43;3.28;;;;;;;29.20;30.85;98430.75;5061082;28;20031;-69
2022/08/12 12:06:24;;;;;;;8.18;2.85;;;;;;;29.05;31.17;98418.69;5044180;28;20021;-69
2022/08/12 12:08:49;;;;;;;8.98;3.33;;;;;;;28.98;31.24;98427.56;5060674;28;20025;-69
2022/08/12 12:11:15;;;;;;;12.43;3.38;;;;;;;28.97;31.92;98421.28;5051815;28;20018;-69
2022/08/12 12:13:41;;;;;;;8.07;2.83;;;;;;;28.90;31.76;98414.75;5049904;28;20025;-69
2022/08/12 12:16:06;;;;;;;10.48;3.22;;;;;;;28.74;31.62;98406.41;5062034;28;20036;-69
2022/08/12 12:18:33;;;;;;;4.72;2.67;;;;;;;28.70;31.40;98404.97;5062847;28;20093;-69
2022/08/12 12:21:04;;;;;;;8.77;3.28;;;;;;;28.67;31.80;98397.13;5043806;28;20032;-69
2022/08/12 12:23:31;;;;;;;6.57;2.92;;;;;;;28.88;31.83;98395.06;5043712;28;20083;-69
2022/08/12 12:25:57;;;;;;;9.18;3.40;;;;;;;29.06;32.17;98397.88;5044465;28;20025;-69
2022/08/12 12:28:23;;;;;;;8.90;3.00;;;;;;;29.27;31.79;98396.59;5063695;28;20098;-69
2022/08/12 12:30:48;;;;;;;14.70;3.30;;;;;;;28.96;32.01;98403.31;5058098;28;20393;-69
2022/08/12 12:33:13;;;;;;;6.60;3.47;;;;;;;28.74;32.05;98387.44;5043931;28;20025;-69
2022/08/12 12:35:40;;;;;;;6.88;2.80;;;;;;;28.77;31.54;98389.84;5043603;28;20021;-69
2022/08/12 12:38:07;;;;;;;12.48;3.13;;;;;;;28.65;31.30;98377.50;5043178;28;20022;-69
2022/08/12 12:40:34;;;;;;;10.82;2.65;;;;;;;28.71;31.24;98393.16;5043976;28;20088;-69
2022/08/12 12:43:00;;;;;;;9.73;2.90;;;;;;;28.72;29.98;98373.19;5063378;28;20027;-69
2022/08/12 12:45:26;;;;;;;12.38;2.97;;;;;;;28.61;30.05;98376.09;5063620;28;20025;-69
2022/08/12 12:48:06;;;;;;;9.27;2.33;;;;;;;28.51;30.65;98369.81;5063609;28;20017;-69
2022/08/12 12:50:37;;;;;;;9.30;2.67;;;;;;;28.48;30.34;98372.00;5054778;28;20063;-69
2022/08/12 12:53:07;;;;;;;7.05;2.17;;;;;;;28.46;30.98;98372.13;5043133;28;20021;-69
2022/08/12 12:55:34;;;;;;;4.43;2.53;;;;;;;28.59;29.99;98378.09;5043269;28;20029;-69
2022/08/12 12:58:03;;;;;;;5.63;2.65;;;;;;;28.47;29.86;98363.00;5043200;28;20095;-69
2022/08/12 13:00:31;;;;;;;9.43;2.47;;;;;;;28.45;30.83;98369.56;5044079;28;20036;-69
2022/08/12 13:02:56;;;;;;;7.72;2.70;;;;;;;28.64;30.51;98370.38;5044147;28;20021;-69
2022/08/12 13:05:28;;;;;;;14.20;3.10;;;;;;;28.48;30.22;98364.72;5044046;28;20032;-69
2022/08/12 13:07:55;;;;;;;10.82;3.00;;;;;;;28.44;30.43;98376.81;5043999;28;20029;-69
2022/08/12 13:10:22;;;;;;;6.88;3.13;;;;;;;28.39;30.92;98360.16;5047723;28;20029;-69
2022/08/12 13:12:48;;;;;;;4.40;2.70;;;;;;;28.29;31.25;98374.72;5057063;28;20025;-69
2022/08/12 13:15:14;;;;;;;5.88;2.95;;;;;;;28.46;30.95;98361.31;5064178;28;20021;-69
2022/08/12 13:17:54;;;;;;;6.22;2.95;;;;;;;28.42;31.19;98359.88;5063851;28;20186;-69
2022/08/12 13:20:21;;;;;;;6.80;2.70;;;;;;;28.48;31.25;98364.72;5063832;28;20277;-69
2022/08/12 13:22:47;;;;;;;5.18;2.50;;;;;;;28.55;31.16;98355.00;5063795;28;20021;-69